メインページ
METAR-TAF:

METAR-TAF

空港 :

Chapleau, オンタリオ州, カナダ

緯度: 47-49N, 経度: 083-21W, 海抜: 447m

現時点の気象観測

当レポートは27分前の20:00(UTC)に作成
の風 9kt
気温 -5°C
湿度 86%
気圧 1020 hPa
視程: 24.1km
高度1600ftの曇り

METAR: CYLD 072000Z 18009KT 15SM OVC016 M05/M07 A3011 RMK SC8 SLP238

時間: 15:27 (20:27 UTC)

予報

当レポートは48分前の19:39(UTC)に作成
予報は07日の 20時(UTC)から 08日の 02時(UTC)まで有効
南/南西の風 10kt
視程: 10km
高度2500ftの曇り
07日の 20時(UTC)から 08日の 02時(UTC)まで一時的に
視程: 8.0km
高度1500ftの曇り
小雪

TAF: CYLD 071939Z 0720/0802 20010KT P6SM OVC025 TEMPO 0720/0802 5SM -SN OVC015 RMK NXT FCST WILL BE ISSUED AT 081245Z

4,000以上の空港の気象観測と天気予報(METAR報とTAF報)

利用可能な観測所は地図上に黄色い丸と赤い丸で示す。

丸の上にカーソルを重ねると観測所名を参照できる。

次にクリックすると気象観測と天気予報を参照できる。

マップの切り替え:黒色「×」印の緑ボタンをクリックして拡大、「-」印の緑ボタンをクリックして縮小、緑色の三角印をクリックして隣りの地図に切り替え


METAR-TAF: